LEPP/PNA METAR and TAF weather

Enter ICAO airport designator
Station Type Date Time Source
LEPP METAR 2021/02/24 17:00 UTC NOAA

LEPP 241700Z 13013KT 9999 FEW045 16/06 Q1028


Station Type Date Time Source
LEPP Decoded METAR 2021/02/24 17:00 UTC NOAA

Pamplona / Noain, Spain (LEPP) 42-46N 001-38W 453M
Feb 24, 2021 - 12:00 PM EST / 2021.02.24 1700 UTC
Wind: from the SE (130 degrees) at 15 MPH (13 KT):0
Visibility: greater than 7 mile(s):0
Sky conditions: mostly clear
Temperature: 60 F (16 C)
Dew Point: 42 F (6 C)
Relative Humidity: 51%
Pressure (altimeter): 30.36 in. Hg (1028 hPa)
ob: LEPP 241700Z 13013KT 9999 FEW045 16/06 Q1028
cycle: 17

Station Type Date Time Source
LEPP TAF 2021/02/24 15:27 UTC NOAA

TAF TAF LEPP 241400Z 2415/2515 15009KT CAVOK TX16/2415Z TN03/2506Z PROB40
TEMPO 2415/2417 15017G28KT PROB30
TEMPO 2421/2509 3000 BR

Example: see airport list